sensor_id;sensor_type;location;lat;lon;timestamp;pressure;altitude;pressure_sealevel;temperature;humidity
79586;BME280;69054;50.866;4.636;2024-01-10T00:00:07;102341.06;;;-8.18;87.80
79586;BME280;69054;50.866;4.636;2024-01-10T00:02:32;102342.97;;;-8.25;87.89
79586;BME280;69054;50.866;4.636;2024-01-10T00:05:00;102339.41;;;-8.24;88.10
79586;BME280;69054;50.866;4.636;2024-01-10T00:07:26;102334.19;;;-8.27;88.73
79586;BME280;69054;50.866;4.636;2024-01-10T00:09:51;102321.00;;;-8.30;89.13
79586;BME280;69054;50.866;4.636;2024-01-10T00:12:17;102321.00;;;-8.30;89.36
79586;BME280;69054;50.866;4.636;2024-01-10T00:14:42;102320.31;;;-8.39;89.97
79586;BME280;69054;50.866;4.636;2024-01-10T00:17:08;102311.38;;;-8.34;89.84
79586;BME280;69054;50.866;4.636;2024-01-10T00:19:33;102314.47;;;-8.51;90.28
79586;BME280;69054;50.866;4.636;2024-01-10T00:21:58;102305.75;;;-8.57;91.03
79586;BME280;69054;50.866;4.636;2024-01-10T00:24:24;102299.50;;;-8.56;91.63
79586;BME280;69054;50.866;4.636;2024-01-10T00:26:49;102299.59;;;-8.59;91.48
79586;BME280;69054;50.866;4.636;2024-01-10T00:29:15;102297.00;;;-8.62;92.57
79586;BME280;69054;50.866;4.636;2024-01-10T00:31:40;102288.63;;;-8.81;93.06
79586;BME280;69054;50.866;4.636;2024-01-10T00:34:06;102295.81;;;-8.87;94.73
79586;BME280;69054;50.866;4.636;2024-01-10T00:36:31;102298.72;;;-8.98;95.27
79586;BME280;69054;50.866;4.636;2024-01-10T00:38:57;102297.25;;;-9.13;97.15
79586;BME280;69054;50.866;4.636;2024-01-10T00:41:22;102301.56;;;-9.07;98.02
79586;BME280;69054;50.866;4.636;2024-01-10T00:43:48;102295.50;;;-9.13;98.44
79586;BME280;69054;50.866;4.636;2024-01-10T00:46:13;102298.00;;;-9.06;98.85
79586;BME280;69054;50.866;4.636;2024-01-10T00:48:39;102301.69;;;-9.14;99.08
79586;BME280;69054;50.866;4.636;2024-01-10T00:51:04;102292.72;;;-9.06;99.39
79586;BME280;69054;50.866;4.636;2024-01-10T00:53:34;102289.28;;;-9.12;100.00
79586;BME280;69054;50.866;4.636;2024-01-10T00:56:00;102293.13;;;-9.28;100.00
79586;BME280;69054;50.866;4.636;2024-01-10T00:58:25;102288.69;;;-9.26;100.00
79586;BME280;69054;50.866;4.636;2024-01-10T01:00:51;102285.94;;;-9.20;100.00
79586;BME280;69054;50.866;4.636;2024-01-10T01:03:16;102288.50;;;-9.17;100.00
79586;BME280;69054;50.866;4.636;2024-01-10T01:05:42;102294.75;;;-9.21;100.00
79586;BME280;69054;50.866;4.636;2024-01-10T01:08:07;102297.19;;;-9.10;100.00
79586;BME280;69054;50.866;4.636;2024-01-10T01:10:33;102297.75;;;-8.94;99.98
79586;BME280;69054;50.866;4.636;2024-01-10T01:12:59;102292.59;;;-9.00;99.58
79586;BME280;69054;50.866;4.636;2024-01-10T01:15:24;102294.53;;;-9.10;100.00
79586;BME280;69054;50.866;4.636;2024-01-10T01:17:50;102300.19;;;-9.27;100.00
79586;BME280;69054;50.866;4.636;2024-01-10T01:20:15;102297.00;;;-9.43;100.00
79586;BME280;69054;50.866;4.636;2024-01-10T01:22:41;102301.22;;;-9.34;100.00
79586;BME280;69054;50.866;4.636;2024-01-10T01:25:06;102303.88;;;-9.36;100.00
79586;BME280;69054;50.866;4.636;2024-01-10T01:27:32;102304.50;;;-9.21;100.00
79586;BME280;69054;50.866;4.636;2024-01-10T01:29:58;102306.28;;;-9.22;100.00
79586;BME280;69054;50.866;4.636;2024-01-10T01:32:23;102299.91;;;-9.13;100.00
79586;BME280;69054;50.866;4.636;2024-01-10T01:34:49;102302.97;;;-9.33;100.00
79586;BME280;69054;50.866;4.636;2024-01-10T01:37:15;102296.09;;;-9.43;100.00
79586;BME280;69054;50.866;4.636;2024-01-10T01:39:40;102298.88;;;-9.50;100.00
79586;BME280;69054;50.866;4.636;2024-01-10T01:42:06;102305.97;;;-9.52;100.00
79586;BME280;69054;50.866;4.636;2024-01-10T01:44:31;102299.09;;;-9.62;100.00
79586;BME280;69054;50.866;4.636;2024-01-10T01:46:57;102295.06;;;-9.82;100.00
79586;BME280;69054;50.866;4.636;2024-01-10T01:49:23;102306.81;;;-9.98;100.00
79586;BME280;69054;50.866;4.636;2024-01-10T01:51:51;102303.25;;;-9.95;100.00
79586;BME280;69054;50.866;4.636;2024-01-10T01:54:17;102306.03;;;-10.03;100.00
79586;BME280;69054;50.866;4.636;2024-01-10T01:56:43;102306.19;;;-10.12;100.00
79586;BME280;69054;50.866;4.636;2024-01-10T01:59:10;102298.13;;;-10.05;100.00
79586;BME280;69054;50.866;4.636;2024-01-10T02:01:36;102300.50;;;-9.91;100.00
79586;BME280;69054;50.866;4.636;2024-01-10T02:04:02;102298.72;;;-9.89;100.00
79586;BME280;69054;50.866;4.636;2024-01-10T02:06:29;102300.56;;;-9.94;100.00
79586;BME280;69054;50.866;4.636;2024-01-10T02:08:58;102291.81;;;-9.97;100.00
79586;BME280;69054;50.866;4.636;2024-01-10T02:11:24;102303.22;;;-9.94;100.00
79586;BME280;69054;50.866;4.636;2024-01-10T02:13:50;102297.13;;;-9.97;100.00
79586;BME280;69054;50.866;4.636;2024-01-10T02:16:17;102294.53;;;-10.02;100.00
79586;BME280;69054;50.866;4.636;2024-01-10T02:18:44;102297.34;;;-10.13;100.00
79586;BME280;69054;50.866;4.636;2024-01-10T02:21:09;102296.66;;;-10.23;100.00
79586;BME280;69054;50.866;4.636;2024-01-10T02:23:35;102298.47;;;-10.28;100.00
79586;BME280;69054;50.866;4.636;2024-01-10T02:26:00;102300.41;;;-10.35;100.00
79586;BME280;69054;50.866;4.636;2024-01-10T02:28:26;102290.88;;;-10.46;100.00
79586;BME280;69054;50.866;4.636;2024-01-10T02:30:52;102295.38;;;-10.51;100.00
79586;BME280;69054;50.866;4.636;2024-01-10T02:33:19;102293.63;;;-10.53;100.00
79586;BME280;69054;50.866;4.636;2024-01-10T02:35:45;102279.59;;;-10.56;100.00
79586;BME280;69054;50.866;4.636;2024-01-10T02:38:10;102277.88;;;-10.60;100.00
79586;BME280;69054;50.866;4.636;2024-01-10T02:40:35;102282.31;;;-10.61;100.00
79586;BME280;69054;50.866;4.636;2024-01-10T02:43:01;102277.94;;;-10.63;100.00
79586;BME280;69054;50.866;4.636;2024-01-10T02:45:27;102272.56;;;-10.59;100.00
79586;BME280;69054;50.866;4.636;2024-01-10T02:47:53;102268.19;;;-10.60;100.00
79586;BME280;69054;50.866;4.636;2024-01-10T02:50:18;102273.28;;;-10.46;100.00
79586;BME280;69054;50.866;4.636;2024-01-10T02:52:44;102273.06;;;-10.33;100.00
79586;BME280;69054;50.866;4.636;2024-01-10T02:55:09;102265.81;;;-10.24;100.00
79586;BME280;69054;50.866;4.636;2024-01-10T02:57:35;102262.03;;;-10.09;100.00
79586;BME280;69054;50.866;4.636;2024-01-10T03:00:00;102263.75;;;-10.06;100.00
79586;BME280;69054;50.866;4.636;2024-01-10T03:02:28;102258.44;;;-10.05;100.00
79586;BME280;69054;50.866;4.636;2024-01-10T03:04:54;102262.97;;;-10.13;100.00
79586;BME280;69054;50.866;4.636;2024-01-10T03:07:19;102257.78;;;-10.19;100.00
79586;BME280;69054;50.866;4.636;2024-01-10T03:09:45;102259.50;;;-10.15;100.00
79586;BME280;69054;50.866;4.636;2024-01-10T03:12:10;102254.31;;;-10.21;100.00
79586;BME280;69054;50.866;4.636;2024-01-10T03:14:36;102251.47;;;-10.10;100.00
79586;BME280;69054;50.866;4.636;2024-01-10T03:17:01;102246.78;;;-9.93;100.00
79586;BME280;69054;50.866;4.636;2024-01-10T03:19:27;102246.91;;;-10.02;100.00
79586;BME280;69054;50.866;4.636;2024-01-10T03:21:53;102247.09;;;-10.11;100.00
79586;BME280;69054;50.866;4.636;2024-01-10T03:24:19;102240.06;;;-10.12;100.00
79586;BME280;69054;50.866;4.636;2024-01-10T03:26:44;102241.00;;;-10.17;100.00
79586;BME280;69054;50.866;4.636;2024-01-10T03:29:10;102233.09;;;-10.18;100.00
79586;BME280;69054;50.866;4.636;2024-01-10T03:31:35;102233.72;;;-10.04;100.00
79586;BME280;69054;50.866;4.636;2024-01-10T03:34:01;102240.22;;;-10.20;100.00
79586;BME280;69054;50.866;4.636;2024-01-10T03:36:27;102230.59;;;-10.26;100.00
79586;BME280;69054;50.866;4.636;2024-01-10T03:38:52;102223.75;;;-10.36;100.00
79586;BME280;69054;50.866;4.636;2024-01-10T03:41:19;102223.16;;;-10.52;100.00
79586;BME280;69054;50.866;4.636;2024-01-10T03:43:45;102219.78;;;-10.62;100.00
79586;BME280;69054;50.866;4.636;2024-01-10T03:46:11;102228.63;;;-10.66;100.00
79586;BME280;69054;50.866;4.636;2024-01-10T03:48:37;102234.03;;;-10.74;100.00
79586;BME280;69054;50.866;4.636;2024-01-10T03:51:04;102222.66;;;-10.77;100.00
79586;BME280;69054;50.866;4.636;2024-01-10T03:53:30;102208.28;;;-10.58;100.00
79586;BME280;69054;50.866;4.636;2024-01-10T03:55:56;102210.97;;;-10.61;100.00
79586;BME280;69054;50.866;4.636;2024-01-10T03:58:21;102206.31;;;-10.46;100.00
79586;BME280;69054;50.866;4.636;2024-01-10T04:00:47;102201.75;;;-10.37;100.00
79586;BME280;69054;50.866;4.636;2024-01-10T04:03:13;102213.34;;;-10.45;100.00
79586;BME280;69054;50.866;4.636;2024-01-10T04:05:38;102209.94;;;-10.52;100.00
79586;BME280;69054;50.866;4.636;2024-01-10T04:08:04;102205.63;;;-10.58;100.00
79586;BME280;69054;50.866;4.636;2024-01-10T04:10:30;102209.25;;;-10.65;100.00
79586;BME280;69054;50.866;4.636;2024-01-10T04:12:55;102210.06;;;-10.61;100.00
79586;BME280;69054;50.866;4.636;2024-01-10T04:15:21;102210.88;;;-10.56;100.00
79586;BME280;69054;50.866;4.636;2024-01-10T04:17:46;102207.34;;;-10.57;100.00
79586;BME280;69054;50.866;4.636;2024-01-10T04:20:12;102203.06;;;-10.62;100.00
79586;BME280;69054;50.866;4.636;2024-01-10T04:22:38;102205.84;;;-10.72;100.00
79586;BME280;69054;50.866;4.636;2024-01-10T04:25:05;102205.91;;;-10.75;100.00
79586;BME280;69054;50.866;4.636;2024-01-10T04:27:31;102205.97;;;-10.78;100.00
79586;BME280;69054;50.866;4.636;2024-01-10T04:29:56;102200.63;;;-10.75;100.00
79586;BME280;69054;50.866;4.636;2024-01-10T04:32:22;102207.56;;;-10.71;100.00
79586;BME280;69054;50.866;4.636;2024-01-10T04:34:48;102203.19;;;-10.70;100.00
79586;BME280;69054;50.866;4.636;2024-01-10T04:37:13;102207.50;;;-10.66;100.00
79586;BME280;69054;50.866;4.636;2024-01-10T04:39:39;102204.75;;;-10.60;100.00
79586;BME280;69054;50.866;4.636;2024-01-10T04:42:05;102210.00;;;-10.58;100.00
79586;BME280;69054;50.866;4.636;2024-01-10T04:44:31;102206.31;;;-10.48;100.00
79586;BME280;69054;50.866;4.636;2024-01-10T04:46:56;102207.22;;;-10.47;100.00
79586;BME280;69054;50.866;4.636;2024-01-10T04:49:22;102205.41;;;-10.45;100.00
79586;BME280;69054;50.866;4.636;2024-01-10T04:51:48;102204.47;;;-10.41;100.00
79586;BME280;69054;50.866;4.636;2024-01-10T04:54:14;102198.34;;;-10.45;100.00
79586;BME280;69054;50.866;4.636;2024-01-10T04:56:39;102196.56;;;-10.43;100.00
79586;BME280;69054;50.866;4.636;2024-01-10T04:59:05;102197.38;;;-10.39;100.00
79586;BME280;69054;50.866;4.636;2024-01-10T05:01:31;102201.06;;;-10.49;100.00
79586;BME280;69054;50.866;4.636;2024-01-10T05:03:56;102206.50;;;-10.57;100.00
79586;BME280;69054;50.866;4.636;2024-01-10T05:06:22;102202.25;;;-10.67;100.00
79586;BME280;69054;50.866;4.636;2024-01-10T05:08:47;102194.97;;;-10.53;100.00
79586;BME280;69054;50.866;4.636;2024-01-10T05:11:13;102195.84;;;-10.53;100.00
79586;BME280;69054;50.866;4.636;2024-01-10T05:13:40;102200.28;;;-10.55;100.00
79586;BME280;69054;50.866;4.636;2024-01-10T05:16:06;102186.97;;;-10.48;100.00
79586;BME280;69054;50.866;4.636;2024-01-10T05:18:31;102190.75;;;-10.15;100.00
79586;BME280;69054;50.866;4.636;2024-01-10T05:20:57;102194.34;;;-10.19;100.00
79586;BME280;69054;50.866;4.636;2024-01-10T05:23:23;102196.09;;;-10.18;100.00
79586;BME280;69054;50.866;4.636;2024-01-10T05:25:48;102202.97;;;-10.08;100.00
79586;BME280;69054;50.866;4.636;2024-01-10T05:28:14;102188.56;;;-9.93;100.00
79586;BME280;69054;50.866;4.636;2024-01-10T05:30:40;102192.63;;;-9.76;100.00
79586;BME280;69054;50.866;4.636;2024-01-10T05:33:06;102190.59;;;-9.62;100.00
79586;BME280;69054;50.866;4.636;2024-01-10T05:35:31;102195.63;;;-9.50;100.00
79586;BME280;69054;50.866;4.636;2024-01-10T05:37:57;102202.75;;;-9.52;100.00
79586;BME280;69054;50.866;4.636;2024-01-10T05:40:23;102207.00;;;-9.44;100.00
79586;BME280;69054;50.866;4.636;2024-01-10T05:42:48;102204.16;;;-9.35;100.00
79586;BME280;69054;50.866;4.636;2024-01-10T05:45:14;102195.16;;;-9.28;100.00
79586;BME280;69054;50.866;4.636;2024-01-10T05:47:43;102192.59;;;-9.33;100.00
79586;BME280;69054;50.866;4.636;2024-01-10T05:50:08;102181.88;;;-9.27;100.00
79586;BME280;69054;50.866;4.636;2024-01-10T05:52:34;102184.25;;;-9.13;100.00
79586;BME280;69054;50.866;4.636;2024-01-10T05:54:59;102178.81;;;-9.06;100.00
79586;BME280;69054;50.866;4.636;2024-01-10T05:57:27;102182.84;;;-8.90;100.00
79586;BME280;69054;50.866;4.636;2024-01-10T05:59:53;102186.56;;;-8.99;100.00
79586;BME280;69054;50.866;4.636;2024-01-10T06:02:25;102179.75;;;-9.09;100.00
79586;BME280;69054;50.866;4.636;2024-01-10T06:04:51;102180.03;;;-9.21;100.00
79586;BME280;69054;50.866;4.636;2024-01-10T06:07:16;102172.25;;;-9.29;100.00
79586;BME280;69054;50.866;4.636;2024-01-10T06:09:42;102177.72;;;-9.37;100.00
79586;BME280;69054;50.866;4.636;2024-01-10T06:12:09;102166.16;;;-9.34;100.00
79586;BME280;69054;50.866;4.636;2024-01-10T06:14:34;102170.78;;;-9.42;100.00
79586;BME280;69054;50.866;4.636;2024-01-10T06:17:00;102168.13;;;-9.42;100.00
79586;BME280;69054;50.866;4.636;2024-01-10T06:19:26;102166.28;;;-9.39;100.00
79586;BME280;69054;50.866;4.636;2024-01-10T06:21:51;102172.34;;;-9.34;100.00
79586;BME280;69054;50.866;4.636;2024-01-10T06:24:23;102174.09;;;-9.34;100.00
79586;BME280;69054;50.866;4.636;2024-01-10T06:26:48;102179.41;;;-9.34;100.00
79586;BME280;69054;50.866;4.636;2024-01-10T06:29:18;102169.81;;;-9.38;100.00
79586;BME280;69054;50.866;4.636;2024-01-10T06:31:44;102176.94;;;-9.42;100.00
79586;BME280;69054;50.866;4.636;2024-01-10T06:34:09;102172.31;;;-9.32;100.00
79586;BME280;69054;50.866;4.636;2024-01-10T06:36:35;102184.69;;;-9.34;100.00
79586;BME280;69054;50.866;4.636;2024-01-10T06:39:00;102175.91;;;-9.35;100.00
79586;BME280;69054;50.866;4.636;2024-01-10T06:41:26;102180.69;;;-9.13;100.00
79586;BME280;69054;50.866;4.636;2024-01-10T06:43:52;102172.88;;;-9.18;100.00
79586;BME280;69054;50.866;4.636;2024-01-10T06:46:18;102173.88;;;-9.22;100.00
79586;BME280;69054;50.866;4.636;2024-01-10T06:48:44;102170.19;;;-9.16;100.00
79586;BME280;69054;50.866;4.636;2024-01-10T06:51:12;102181.88;;;-9.27;100.00
79586;BME280;69054;50.866;4.636;2024-01-10T06:53:38;102180.88;;;-9.21;100.00
79586;BME280;69054;50.866;4.636;2024-01-10T06:56:04;102175.63;;;-9.22;100.00
79586;BME280;69054;50.866;4.636;2024-01-10T06:58:30;102176.66;;;-9.30;100.00
79586;BME280;69054;50.866;4.636;2024-01-10T07:00:55;102178.69;;;-9.41;100.00
79586;BME280;69054;50.866;4.636;2024-01-10T07:03:21;102163.75;;;-9.45;100.00
79586;BME280;69054;50.866;4.636;2024-01-10T07:05:46;102166.28;;;-9.39;100.00
79586;BME280;69054;50.866;4.636;2024-01-10T07:08:11;102175.88;;;-9.33;100.00
79586;BME280;69054;50.866;4.636;2024-01-10T07:10:37;102173.28;;;-9.36;100.00
79586;BME280;69054;50.866;4.636;2024-01-10T07:13:04;102173.56;;;-9.49;100.00
79586;BME280;69054;50.866;4.636;2024-01-10T07:15:29;102179.91;;;-9.57;100.00
79586;BME280;69054;50.866;4.636;2024-01-10T07:17:55;102184.44;;;-9.63;100.00
79586;BME280;69054;50.866;4.636;2024-01-10T07:20:21;102174.78;;;-9.65;100.00
79586;BME280;69054;50.866;4.636;2024-01-10T07:22:49;102174.84;;;-9.68;100.00
79586;BME280;69054;50.866;4.636;2024-01-10T07:25:15;102187.31;;;-9.73;100.00
79586;BME280;69054;50.866;4.636;2024-01-10T07:27:41;102179.25;;;-9.67;100.00
79586;BME280;69054;50.866;4.636;2024-01-10T07:30:07;102185.41;;;-9.67;100.00
79586;BME280;69054;50.866;4.636;2024-01-10T07:32:39;102183.66;;;-9.68;100.00
79586;BME280;69054;50.866;4.636;2024-01-10T07:35:06;102198.88;;;-9.79;100.00
79586;BME280;69054;50.866;4.636;2024-01-10T07:37:35;102188.38;;;-9.84;100.00
79586;BME280;69054;50.866;4.636;2024-01-10T07:40:01;102190.31;;;-9.92;100.00
79586;BME280;69054;50.866;4.636;2024-01-10T07:42:26;102184.81;;;-9.83;100.00
79586;BME280;69054;50.866;4.636;2024-01-10T07:44:51;102192.59;;;-9.73;100.00
79586;BME280;69054;50.866;4.636;2024-01-10T07:47:18;102187.94;;;-9.62;100.00
79586;BME280;69054;50.866;4.636;2024-01-10T07:49:43;102190.41;;;-9.53;100.00
79586;BME280;69054;50.866;4.636;2024-01-10T07:52:09;102195.88;;;-9.62;100.00
79586;BME280;69054;50.866;4.636;2024-01-10T07:54:34;102201.16;;;-9.60;100.00
79586;BME280;69054;50.866;4.636;2024-01-10T07:57:00;102201.28;;;-9.67;100.00
79586;BME280;69054;50.866;4.636;2024-01-10T07:59:28;102200.38;;;-9.66;100.00
79586;BME280;69054;50.866;4.636;2024-01-10T08:01:55;102212.78;;;-9.69;100.00
79586;BME280;69054;50.866;4.636;2024-01-10T08:04:25;102219.00;;;-9.70;100.00
79586;BME280;69054;50.866;4.636;2024-01-10T08:06:54;102209.75;;;-9.51;100.00
79586;BME280;69054;50.866;4.636;2024-01-10T08:09:21;102222.09;;;-9.50;100.00
79586;BME280;69054;50.866;4.636;2024-01-10T08:11:47;102216.72;;;-9.45;100.00
79586;BME280;69054;50.866;4.636;2024-01-10T08:14:14;102217.66;;;-9.49;100.00
79586;BME280;69054;50.866;4.636;2024-01-10T08:16:39;102226.44;;;-9.46;100.00
79586;BME280;69054;50.866;4.636;2024-01-10T08:19:04;102221.53;;;-9.22;100.00
79586;BME280;69054;50.866;4.636;2024-01-10T08:21:30;102224.00;;;-9.14;100.00
79586;BME280;69054;50.866;4.636;2024-01-10T08:23:55;102229.22;;;-9.10;100.00
79586;BME280;69054;50.866;4.636;2024-01-10T08:26:21;102216.66;;;-9.01;100.00
79586;BME280;69054;50.866;4.636;2024-01-10T08:28:46;102215.53;;;-8.91;100.00
79586;BME280;69054;50.866;4.636;2024-01-10T08:31:12;102206.72;;;-8.92;100.00
79586;BME280;69054;50.866;4.636;2024-01-10T08:33:41;102201.94;;;-8.77;100.00
79586;BME280;69054;50.866;4.636;2024-01-10T08:36:07;102195.25;;;-8.56;100.00
79586;BME280;69054;50.866;4.636;2024-01-10T08:38:32;102202.06;;;-8.46;100.00
79586;BME280;69054;50.866;4.636;2024-01-10T08:40:57;102203.16;;;-8.20;100.00
79586;BME280;69054;50.866;4.636;2024-01-10T08:43:23;102196.69;;;-8.10;99.83
79586;BME280;69054;50.866;4.636;2024-01-10T08:45:48;102201.97;;;-7.77;96.90
79586;BME280;69054;50.866;4.636;2024-01-10T08:48:14;102202.09;;;-7.50;94.66
79586;BME280;69054;50.866;4.636;2024-01-10T08:50:39;102199.09;;;-7.38;94.33
79586;BME280;69054;50.866;4.636;2024-01-10T08:53:05;102207.34;;;-7.17;92.29
79586;BME280;69054;50.866;4.636;2024-01-10T08:55:33;102203.50;;;-7.07;91.40
79586;BME280;69054;50.866;4.636;2024-01-10T08:58:02;102205.91;;;-6.99;92.09
79586;BME280;69054;50.866;4.636;2024-01-10T09:00:28;102202.16;;;-6.93;91.02
79586;BME280;69054;50.866;4.636;2024-01-10T09:02:54;102204.63;;;-6.87;92.11
79586;BME280;69054;50.866;4.636;2024-01-10T09:05:20;102205.38;;;-6.82;91.15
79586;BME280;69054;50.866;4.636;2024-01-10T09:07:47;102205.97;;;-6.74;90.76
79586;BME280;69054;50.866;4.636;2024-01-10T09:10:12;102210.28;;;-6.70;90.92
79586;BME280;69054;50.866;4.636;2024-01-10T09:12:39;102207.53;;;-6.67;88.40
79586;BME280;69054;50.866;4.636;2024-01-10T09:15:05;102208.13;;;-6.57;88.85
79586;BME280;69054;50.866;4.636;2024-01-10T09:17:33;102210.63;;;-6.52;88.93
79586;BME280;69054;50.866;4.636;2024-01-10T09:19:58;102214.00;;;-6.47;89.03
79586;BME280;69054;50.866;4.636;2024-01-10T09:22:24;102213.78;;;-6.41;88.45
79586;BME280;69054;50.866;4.636;2024-01-10T09:24:50;102217.16;;;-6.36;88.10
79586;BME280;69054;50.866;4.636;2024-01-10T09:27:15;102223.19;;;-6.31;87.50
79586;BME280;69054;50.866;4.636;2024-01-10T09:29:40;102224.91;;;-6.28;87.65
79586;BME280;69054;50.866;4.636;2024-01-10T09:32:06;102216.66;;;-6.20;87.24
79586;BME280;69054;50.866;4.636;2024-01-10T09:34:31;102215.44;;;-6.12;87.01
79586;BME280;69054;50.866;4.636;2024-01-10T09:36:57;102224.25;;;-6.10;85.62
79586;BME280;69054;50.866;4.636;2024-01-10T09:39:23;102222.13;;;-6.00;86.82
79586;BME280;69054;50.866;4.636;2024-01-10T09:41:49;102224.50;;;-5.92;86.68
79586;BME280;69054;50.866;4.636;2024-01-10T09:44:17;102219.00;;;-5.88;85.96
79586;BME280;69054;50.866;4.636;2024-01-10T09:46:48;102215.31;;;-5.83;85.63
79586;BME280;69054;50.866;4.636;2024-01-10T09:49:14;102221.25;;;-5.75;84.91
79586;BME280;69054;50.866;4.636;2024-01-10T09:51:40;102211.34;;;-5.72;84.23
79586;BME280;69054;50.866;4.636;2024-01-10T09:54:06;102217.25;;;-5.63;85.36
79586;BME280;69054;50.866;4.636;2024-01-10T09:56:32;102214.41;;;-5.59;84.24
79586;BME280;69054;50.866;4.636;2024-01-10T09:59:01;102207.88;;;-5.50;84.38
79586;BME280;69054;50.866;4.636;2024-01-10T10:01:30;102208.50;;;-5.42;84.33
79586;BME280;69054;50.866;4.636;2024-01-10T10:03:58;102209.91;;;-5.33;84.15
79586;BME280;69054;50.866;4.636;2024-01-10T10:06:27;102210.22;;;-5.17;83.34
79586;BME280;69054;50.866;4.636;2024-01-10T10:08:52;102210.72;;;-5.07;82.45
79586;BME280;69054;50.866;4.636;2024-01-10T10:11:18;102207.91;;;-5.04;81.18
79586;BME280;69054;50.866;4.636;2024-01-10T10:13:43;102211.09;;;-4.94;81.68
79586;BME280;69054;50.866;4.636;2024-01-10T10:16:09;102204.78;;;-4.92;80.98
79586;BME280;69054;50.866;4.636;2024-01-10T10:18:35;102201.44;;;-4.75;80.90
79586;BME280;69054;50.866;4.636;2024-01-10T10:23:34;102208.28;;;-4.68;80.11
79586;BME280;69054;50.866;4.636;2024-01-10T10:28:40;102207.59;;;-4.51;79.64
79586;BME280;69054;50.866;4.636;2024-01-10T10:31:06;102215.34;;;-4.44;77.99
79586;BME280;69054;50.866;4.636;2024-01-10T10:33:32;102211.09;;;-4.28;78.50
79586;BME280;69054;50.866;4.636;2024-01-10T10:35:58;102210.31;;;-4.10;78.29
79586;BME280;69054;50.866;4.636;2024-01-10T10:38:24;102213.63;;;-3.84;76.78
79586;BME280;69054;50.866;4.636;2024-01-10T10:40:50;102211.78;;;-3.42;74.75
79586;BME280;69054;50.866;4.636;2024-01-10T10:43:18;102204.56;;;-2.83;73.40
79586;BME280;69054;50.866;4.636;2024-01-10T10:45:47;102204.03;;;-2.18;70.45
79586;BME280;69054;50.866;4.636;2024-01-10T10:48:16;102212.25;;;-1.03;66.37
79586;BME280;69054;50.866;4.636;2024-01-10T10:51:10;102204.53;;;-0.15;60.90
79586;BME280;69054;50.866;4.636;2024-01-10T10:53:35;102204.25;;;0.34;57.93
79586;BME280;69054;50.866;4.636;2024-01-10T10:56:03;102203.94;;;0.96;54.55
79586;BME280;69054;50.866;4.636;2024-01-10T10:58:38;102190.38;;;1.12;53.86
79586;BME280;69054;50.866;4.636;2024-01-10T11:01:08;102187.53;;;0.72;53.09
79586;BME280;69054;50.866;4.636;2024-01-10T11:03:36;102185.31;;;0.79;53.79
79586;BME280;69054;50.866;4.636;2024-01-10T11:06:10;102188.16;;;1.04;53.79
79586;BME280;69054;50.866;4.636;2024-01-10T11:08:39;102188.81;;;2.03;52.10
79586;BME280;69054;50.866;4.636;2024-01-10T11:11:11;102182.16;;;1.95;50.14
79586;BME280;69054;50.866;4.636;2024-01-10T11:24:53;102178.63;;;2.96;47.19
79586;BME280;69054;50.866;4.636;2024-01-10T11:27:19;102182.81;;;2.63;47.22
79586;BME280;69054;50.866;4.636;2024-01-10T11:29:45;102167.94;;;1.66;48.19
79586;BME280;69054;50.866;4.636;2024-01-10T11:32:15;102165.41;;;1.90;48.53
79586;BME280;69054;50.866;4.636;2024-01-10T11:37:19;102163.16;;;1.44;49.21
79586;BME280;69054;50.866;4.636;2024-01-10T11:39:44;102161.75;;;1.51;49.47
79586;BME280;69054;50.866;4.636;2024-01-10T11:42:10;102165.88;;;1.57;49.21
79586;BME280;69054;50.866;4.636;2024-01-10T11:44:50;102162.28;;;1.97;48.24
79586;BME280;69054;50.866;4.636;2024-01-10T11:47:15;102153.91;;;2.14;47.14
79586;BME280;69054;50.866;4.636;2024-01-10T11:49:56;102151.53;;;2.09;47.63
79586;BME280;69054;50.866;4.636;2024-01-10T11:52:23;102142.56;;;2.47;46.57
79586;BME280;69054;50.866;4.636;2024-01-10T11:54:49;102145.84;;;2.77;45.89
79586;BME280;69054;50.866;4.636;2024-01-10T11:57:22;102145.59;;;2.93;45.27
79586;BME280;69054;50.866;4.636;2024-01-10T11:59:55;102151.53;;;3.22;43.46
79586;BME280;69054;50.866;4.636;2024-01-10T12:02:25;102148.66;;;3.12;43.31
79586;BME280;69054;50.866;4.636;2024-01-10T12:04:52;102143.84;;;3.05;42.48
79586;BME280;69054;50.866;4.636;2024-01-10T12:07:18;102144.38;;;2.60;43.69
79586;BME280;69054;50.866;4.636;2024-01-10T12:09:45;102145.47;;;2.44;43.87
79586;BME280;69054;50.866;4.636;2024-01-10T12:12:12;102137.03;;;1.72;45.07
79586;BME280;69054;50.866;4.636;2024-01-10T12:14:37;102143.09;;;1.48;46.67
79586;BME280;69054;50.866;4.636;2024-01-10T12:17:03;102143.09;;;1.21;46.72
79586;BME280;69054;50.866;4.636;2024-01-10T12:19:30;102138.16;;;0.73;46.64
79586;BME280;69054;50.866;4.636;2024-01-10T12:21:58;102138.34;;;0.56;48.43
79586;BME280;69054;50.866;4.636;2024-01-10T12:24:27;102136.41;;;1.14;47.18
79586;BME280;69054;50.866;4.636;2024-01-10T12:26:54;102125.97;;;1.49;46.13
79586;BME280;69054;50.866;4.636;2024-01-10T12:29:20;102131.19;;;1.65;46.06
79586;BME280;69054;50.866;4.636;2024-01-10T12:31:46;102130.91;;;1.42;46.69
79586;BME280;69054;50.866;4.636;2024-01-10T12:34:12;102130.44;;;0.81;47.99
79586;BME280;69054;50.866;4.636;2024-01-10T12:36:37;102120.88;;;0.34;48.73
79586;BME280;69054;50.866;4.636;2024-01-10T12:39:04;102125.50;;;0.17;49.77
79586;BME280;69054;50.866;4.636;2024-01-10T12:41:32;102126.63;;;0.42;48.47
79586;BME280;69054;50.866;4.636;2024-01-10T12:44:00;102126.56;;;0.29;49.32
79586;BME280;69054;50.866;4.636;2024-01-10T12:46:30;102123.47;;;0.35;49.39
79586;BME280;69054;50.866;4.636;2024-01-10T12:48:59;102125.31;;;0.21;49.50
79586;BME280;69054;50.866;4.636;2024-01-10T12:51:29;102117.72;;;0.56;49.66
79586;BME280;69054;50.866;4.636;2024-01-10T12:53:55;102126.75;;;0.97;47.58
79586;BME280;69054;50.866;4.636;2024-01-10T12:56:21;102125.50;;;0.61;48.48